sensor_id;sensor_type;location;lat;lon;timestamp;P1;durP1;ratioP1;P2;durP2;ratioP2
7883;SDS011;3987;51.458;7.238;2023-07-31T00:09:34;5.47;;;4.93;;
7883;SDS011;3987;51.458;7.238;2023-07-31T00:24:34;5.77;;;4.93;;
7883;SDS011;3987;51.458;7.238;2023-07-31T00:39:34;5.90;;;5.17;;
7883;SDS011;3987;51.458;7.238;2023-07-31T00:54:35;13.33;;;5.87;;
7883;SDS011;3987;51.458;7.238;2023-07-31T01:39:57;8.67;;;5.23;;
7883;SDS011;3987;51.458;7.238;2023-07-31T01:54:57;16.50;;;5.73;;
7883;SDS011;3987;51.458;7.238;2023-07-31T02:09:58;9.90;;;5.50;;
7883;SDS011;3987;51.458;7.238;2023-07-31T02:24:58;8.70;;;4.60;;
7883;SDS011;3987;51.458;7.238;2023-07-31T02:39:58;8.63;;;4.77;;
7883;SDS011;3987;51.458;7.238;2023-07-31T02:55:02;10.30;;;5.80;;
7883;SDS011;3987;51.458;7.238;2023-07-31T03:10:02;8.07;;;5.30;;
7883;SDS011;3987;51.458;7.238;2023-07-31T03:25:03;9.27;;;5.03;;
7883;SDS011;3987;51.458;7.238;2023-07-31T03:40:04;6.73;;;5.40;;
7883;SDS011;3987;51.458;7.238;2023-07-31T03:55:05;7.77;;;5.40;;
7883;SDS011;3987;51.458;7.238;2023-07-31T04:10:06;5.93;;;4.87;;
7883;SDS011;3987;51.458;7.238;2023-07-31T04:25:06;6.40;;;5.40;;
7883;SDS011;3987;51.458;7.238;2023-07-31T04:40:07;11.00;;;5.10;;
7883;SDS011;3987;51.458;7.238;2023-07-31T04:55:08;7.47;;;5.05;;
7883;SDS011;3987;51.458;7.238;2023-07-31T05:10:08;7.40;;;5.43;;
7883;SDS011;3987;51.458;7.238;2023-07-31T05:25:09;7.93;;;5.40;;
7883;SDS011;3987;51.458;7.238;2023-07-31T05:40:09;6.70;;;5.27;;
7883;SDS011;3987;51.458;7.238;2023-07-31T05:55:10;5.87;;;5.30;;
7883;SDS011;3987;51.458;7.238;2023-07-31T06:10:10;7.73;;;5.63;;
7883;SDS011;3987;51.458;7.238;2023-07-31T06:25:11;9.10;;;5.97;;
7883;SDS011;3987;51.458;7.238;2023-07-31T06:40:12;6.17;;;5.57;;
7883;SDS011;3987;51.458;7.238;2023-07-31T06:55:17;8.20;;;6.00;;
7883;SDS011;3987;51.458;7.238;2023-07-31T07:10:21;7.53;;;5.47;;
7883;SDS011;3987;51.458;7.238;2023-07-31T07:25:23;6.37;;;5.77;;
7883;SDS011;3987;51.458;7.238;2023-07-31T07:40:24;6.17;;;5.63;;
7883;SDS011;3987;51.458;7.238;2023-07-31T07:55:24;5.97;;;5.50;;
7883;SDS011;3987;51.458;7.238;2023-07-31T08:10:24;6.67;;;4.97;;
7883;SDS011;3987;51.458;7.238;2023-07-31T08:25:25;4.73;;;4.53;;
7883;SDS011;3987;51.458;7.238;2023-07-31T08:40:25;4.17;;;3.77;;
7883;SDS011;3987;51.458;7.238;2023-07-31T08:55:27;3.27;;;3.13;;
7883;SDS011;3987;51.458;7.238;2023-07-31T09:10:28;4.10;;;3.80;;
7883;SDS011;3987;51.458;7.238;2023-07-31T09:25:28;3.67;;;3.50;;
7883;SDS011;3987;51.458;7.238;2023-07-31T09:40:33;3.03;;;2.90;;
7883;SDS011;3987;51.458;7.238;2023-07-31T09:55:34;2.93;;;2.83;;
7883;SDS011;3987;51.458;7.238;2023-07-31T10:10:40;3.30;;;3.20;;
7883;SDS011;3987;51.458;7.238;2023-07-31T10:25:41;2.27;;;2.27;;
7883;SDS011;3987;51.458;7.238;2023-07-31T10:40:43;1.87;;;1.77;;
7883;SDS011;3987;51.458;7.238;2023-07-31T10:55:44;2.70;;;2.47;;
7883;SDS011;3987;51.458;7.238;2023-07-31T11:10:46;3.90;;;3.70;;
7883;SDS011;3987;51.458;7.238;2023-07-31T11:25:47;4.10;;;3.80;;
7883;SDS011;3987;51.458;7.238;2023-07-31T11:40:47;4.23;;;3.73;;
7883;SDS011;3987;51.458;7.238;2023-07-31T11:55:48;4.63;;;4.23;;
7883;SDS011;3987;51.458;7.238;2023-07-31T12:10:52;4.20;;;3.40;;
7883;SDS011;3987;51.458;7.238;2023-07-31T12:26:00;2.40;;;2.40;;
7883;SDS011;3987;51.458;7.238;2023-07-31T12:41:08;2.67;;;2.50;;
7883;SDS011;3987;51.458;7.238;2023-07-31T12:56:09;3.33;;;3.13;;
7883;SDS011;3987;51.458;7.238;2023-07-31T13:11:09;2.40;;;2.40;;
7883;SDS011;3987;51.458;7.238;2023-07-31T13:26:09;1.87;;;1.87;;
7883;SDS011;3987;51.458;7.238;2023-07-31T13:41:11;3.10;;;2.90;;
7883;SDS011;3987;51.458;7.238;2023-07-31T13:56:11;2.80;;;2.70;;
7883;SDS011;3987;51.458;7.238;2023-07-31T14:11:12;3.27;;;3.17;;
7883;SDS011;3987;51.458;7.238;2023-07-31T14:26:12;3.20;;;3.10;;
7883;SDS011;3987;51.458;7.238;2023-07-31T14:41:13;3.37;;;3.13;;
7883;SDS011;3987;51.458;7.238;2023-07-31T14:56:13;3.40;;;3.30;;
7883;SDS011;3987;51.458;7.238;2023-07-31T15:11:14;3.70;;;3.40;;
7883;SDS011;3987;51.458;7.238;2023-07-31T15:26:15;3.80;;;3.50;;
7883;SDS011;3987;51.458;7.238;2023-07-31T15:41:16;4.43;;;4.03;;
7883;SDS011;3987;51.458;7.238;2023-07-31T15:56:17;3.90;;;3.70;;
7883;SDS011;3987;51.458;7.238;2023-07-31T16:11:18;4.27;;;4.07;;
7883;SDS011;3987;51.458;7.238;2023-07-31T16:26:18;3.93;;;3.73;;
7883;SDS011;3987;51.458;7.238;2023-07-31T16:41:20;4.83;;;4.53;;
7883;SDS011;3987;51.458;7.238;2023-07-31T16:56:21;6.27;;;4.70;;
7883;SDS011;3987;51.458;7.238;2023-07-31T17:11:21;2.97;;;2.97;;
7883;SDS011;3987;51.458;7.238;2023-07-31T17:26:22;3.03;;;2.93;;
7883;SDS011;3987;51.458;7.238;2023-07-31T17:41:22;3.70;;;3.50;;
7883;SDS011;3987;51.458;7.238;2023-07-31T17:56:24;3.47;;;3.27;;
7883;SDS011;3987;51.458;7.238;2023-07-31T18:11:24;3.43;;;3.23;;
7883;SDS011;3987;51.458;7.238;2023-07-31T18:26:26;3.30;;;3.20;;
7883;SDS011;3987;51.458;7.238;2023-07-31T18:41:27;2.40;;;2.30;;
7883;SDS011;3987;51.458;7.238;2023-07-31T18:56:27;2.40;;;2.20;;
7883;SDS011;3987;51.458;7.238;2023-07-31T19:11:28;2.47;;;2.47;;
7883;SDS011;3987;51.458;7.238;2023-07-31T19:26:28;2.40;;;2.40;;
7883;SDS011;3987;51.458;7.238;2023-07-31T19:41:30;1.83;;;1.83;;
7883;SDS011;3987;51.458;7.238;2023-07-31T19:56:30;1.80;;;1.57;;
7883;SDS011;3987;51.458;7.238;2023-07-31T20:11:31;1.70;;;1.60;;
7883;SDS011;3987;51.458;7.238;2023-07-31T20:26:31;2.37;;;2.27;;
7883;SDS011;3987;51.458;7.238;2023-07-31T20:41:35;2.50;;;2.40;;
7883;SDS011;3987;51.458;7.238;2023-07-31T20:56:35;2.20;;;2.10;;
7883;SDS011;3987;51.458;7.238;2023-07-31T21:11:35;1.63;;;1.53;;
7883;SDS011;3987;51.458;7.238;2023-07-31T21:26:37;1.37;;;1.27;;
7883;SDS011;3987;51.458;7.238;2023-07-31T21:41:37;1.40;;;1.40;;
7883;SDS011;3987;51.458;7.238;2023-07-31T21:56:38;2.17;;;1.47;;
7883;SDS011;3987;51.458;7.238;2023-07-31T22:11:38;1.20;;;1.20;;
7883;SDS011;3987;51.458;7.238;2023-07-31T22:26:39;1.20;;;1.10;;
7883;SDS011;3987;51.458;7.238;2023-07-31T22:41:40;0.70;;;0.70;;
7883;SDS011;3987;51.458;7.238;2023-07-31T22:56:40;0.50;;;0.50;;
7883;SDS011;3987;51.458;7.238;2023-07-31T23:11:41;1.43;;;0.40;;
7883;SDS011;3987;51.458;7.238;2023-07-31T23:26:41;1.60;;;0.67;;
7883;SDS011;3987;51.458;7.238;2023-07-31T23:41:42;0.50;;;0.50;;
7883;SDS011;3987;51.458;7.238;2023-07-31T23:56:42;0.60;;;0.60;;
